Time,TemperatureF,DewpointF,PressureIn,WindDirection,WindDirectionDegrees,WindSpeedMPH,WindSpeedGustMPH,Humidity,HourlyPrecipIn,Conditions,Clouds,dailyrainin,SolarRadiationWatts/m^2,SoftwareType,DateUTC
2013-04-13 00:00:00,35.0,33.0,-100.00,WSW,247,4.0,-999.0,92,-99.99,,,-99.99,0.000000,,2013-04-13 04:00:00,
2013-04-13 00:42:00,35.0,33.0,-100.00,WSW,247,4.0,-999.0,92,-99.99,,,-99.99,0.000000,,2013-04-13 04:42:00,
2013-04-13 00:53:00,35.0,33.0,-100.00,WSW,247,4.0,-999.0,92,-99.99,,,-99.99,0.000000,,2013-04-13 04:53:00,
2013-04-13 01:00:00,34.0,33.0,-100.00,West,270,5.0,-999.0,93,0.01,,,-99.99,0.000000,,2013-04-13 05:00:00,
2013-04-13 01:43:00,34.0,33.0,-100.00,West,270,5.0,-999.0,93,0.01,,,-99.99,0.000000,,2013-04-13 05:43:00,
2013-04-13 01:53:00,34.0,33.0,-100.00,West,270,5.0,-999.0,93,0.01,,,-99.99,0.000000,,2013-04-13 05:53:00,
2013-04-13 02:00:00,34.0,32.0,-100.00,West,270,5.0,-999.0,94,0.04,,,-99.99,0.000000,,2013-04-13 06:00:00,
2013-04-13 02:49:00,34.0,32.0,-100.00,West,270,5.0,-999.0,94,0.04,,,-99.99,0.000000,,2013-04-13 06:49:00,
2013-04-13 02:56:00,34.0,32.0,-100.00,West,270,5.0,-999.0,94,0.04,,,-99.99,0.000000,,2013-04-13 06:56:00,
2013-04-13 03:00:00,34.0,32.0,-100.00,WSW,247,8.0,-999.0,93,-99.99,,,-99.99,0.000000,,2013-04-13 07:00:00,
2013-04-13 03:46:00,34.0,32.0,-100.00,WSW,247,8.0,-999.0,93,-99.99,,,-99.99,0.000000,,2013-04-13 07:46:00,
2013-04-13 03:58:00,34.0,32.0,-100.00,WSW,247,8.0,-999.0,93,-99.99,,,-99.99,0.000000,,2013-04-13 07:58:00,
2013-04-13 04:00:00,33.0,31.0,-100.00,West,270,7.0,-999.0,93,0.03,,,-99.99,0.000000,,2013-04-13 08:00:00,
2013-04-13 04:47:00,33.0,31.0,-100.00,West,270,7.0,-999.0,93,0.03,,,-99.99,0.000000,,2013-04-13 08:47:00,
2013-04-13 04:55:00,33.0,31.0,-100.00,West,270,7.0,-999.0,93,0.03,,,-99.99,0.000000,,2013-04-13 08:55:00,
2013-04-13 05:00:00,33.0,31.0,-100.00,WSW,247,6.0,-999.0,90,-99.99,,,-99.99,0.000000,,2013-04-13 09:00:00,
2013-04-13 05:53:00,33.0,31.0,-100.00,WSW,247,6.0,-999.0,90,-99.99,,,-99.99,0.000000,,2013-04-13 09:53:00,
2013-04-13 06:00:00,34.0,30.0,-100.00,WSW,247,6.0,-999.0,86,-99.99,,,-99.99,0.000000,,2013-04-13 10:00:00,
2013-04-13 06:51:00,34.0,30.0,-100.00,WSW,247,6.0,-999.0,86,-99.99,,,-99.99,0.000000,,2013-04-13 10:51:00,
2013-04-13 06:56:00,34.0,30.0,-100.00,WSW,247,6.0,-999.0,86,-99.99,,,-99.99,0.000000,,2013-04-13 10:56:00,
2013-04-13 07:00:00,34.0,29.0,-100.00,WSW,247,8.0,-999.0,82,-99.99,,,-99.99,0.000000,,2013-04-13 11:00:00,
2013-04-13 07:54:00,34.0,29.0,-100.00,WSW,247,8.0,-999.0,82,-99.99,,,-99.99,0.000000,,2013-04-13 11:54:00,
2013-04-13 08:00:00,34.0,29.0,-100.00,WSW,247,9.0,-999.0,81,-99.99,,,-99.99,4.640000,,2013-04-13 12:00:00,
2013-04-13 08:49:00,34.0,29.0,-100.00,WSW,247,9.0,-999.0,81,-99.99,,,-99.99,4.640000,,2013-04-13 12:49:00,
2013-04-13 08:57:00,34.0,29.0,-100.00,WSW,247,9.0,-999.0,81,-99.99,,,-99.99,4.640000,,2013-04-13 12:57:00,
2013-04-13 09:00:00,34.0,29.0,-100.00,WSW,247,9.0,-999.0,81,-99.99,,,-99.99,23.200001,,2013-04-13 13:00:00,
2013-04-13 09:49:00,34.0,29.0,-100.00,WSW,247,9.0,-999.0,81,-99.99,,,-99.99,23.200001,,2013-04-13 13:49:00,
2013-04-13 09:58:00,34.0,29.0,-100.00,WSW,247,9.0,-999.0,81,-99.99,,,-99.99,23.200001,,2013-04-13 13:58:00,
2013-04-13 10:00:00,34.0,29.0,-100.00,WSW,247,10.0,-999.0,83,-99.99,,,-99.99,55.680000,,2013-04-13 14:00:00,
2013-04-13 10:48:00,34.0,29.0,-100.00,WSW,247,10.0,-999.0,83,-99.99,,,-99.99,55.680000,,2013-04-13 14:48:00,
2013-04-13 11:00:00,34.0,30.0,-100.00,WSW,247,11.0,-999.0,85,-99.99,,,-99.99,103.239998,,2013-04-13 15:00:00,
2013-04-13 11:45:00,34.0,30.0,-100.00,WSW,247,11.0,-999.0,85,-99.99,,,-99.99,103.239998,,2013-04-13 15:45:00,
2013-04-13 11:59:00,34.0,30.0,-100.00,WSW,247,11.0,-999.0,85,-99.99,,,-99.99,103.239998,,2013-04-13 15:59:00,
2013-04-13 12:00:00,34.0,29.0,-100.00,WSW,247,11.0,-999.0,82,-99.99,,,-99.99,128.759995,,2013-04-13 16:00:00,
2013-04-13 12:48:00,34.0,29.0,-100.00,WSW,247,11.0,-999.0,82,-99.99,,,-99.99,128.759995,,2013-04-13 16:48:00,
2013-04-13 12:59:00,34.0,29.0,-100.00,WSW,247,11.0,-999.0,82,-99.99,,,-99.99,128.759995,,2013-04-13 16:59:00,
2013-04-13 13:00:00,34.0,30.0,-100.00,West,270,12.0,-999.0,82,-99.99,,,-99.99,156.600006,,2013-04-13 17:00:00,
2013-04-13 13:45:00,34.0,30.0,-100.00,West,270,12.0,-999.0,82,-99.99,,,-99.99,156.600006,,2013-04-13 17:45:00,
2013-04-13 14:00:00,34.0,27.0,-100.00,West,270,12.0,-999.0,77,-99.99,,,-99.99,209.960007,,2013-04-13 18:00:00,
2013-04-13 14:42:00,34.0,27.0,-100.00,West,270,12.0,-999.0,77,-99.99,,,-99.99,209.960007,,2013-04-13 18:42:00,
2013-04-13 14:53:00,34.0,27.0,-100.00,West,270,12.0,-999.0,77,-99.99,,,-99.99,209.960007,,2013-04-13 18:53:00,
2013-04-13 15:00:00,36.0,25.0,-100.00,West,270,14.0,-999.0,65,-99.99,,,-99.99,432.679993,,2013-04-13 19:00:00,
2013-04-13 15:42:00,36.0,25.0,-100.00,West,270,14.0,-999.0,65,-99.99,,,-99.99,432.679993,,2013-04-13 19:42:00,
2013-04-13 15:53:00,36.0,25.0,-100.00,West,270,14.0,-999.0,65,-99.99,,,-99.99,432.679993,,2013-04-13 19:53:00,
2013-04-13 16:00:00,37.0,24.0,-100.00,WNW,292,14.0,-999.0,58,-99.99,,,-99.99,424.559998,,2013-04-13 20:00:00,
2013-04-13 16:42:00,37.0,24.0,-100.00,WNW,292,14.0,-999.0,58,-99.99,,,-99.99,424.559998,,2013-04-13 20:42:00,
2013-04-13 16:53:00,37.0,24.0,-100.00,WNW,292,14.0,-999.0,58,-99.99,,,-99.99,424.559998,,2013-04-13 20:53:00,
2013-04-13 17:00:00,37.0,24.0,-100.00,West,270,14.0,-999.0,58,-99.99,,,-99.99,273.760010,,2013-04-13 21:00:00,
2013-04-13 17:43:00,37.0,24.0,-100.00,West,270,14.0,-999.0,58,-99.99,,,-99.99,273.760010,,2013-04-13 21:43:00,
2013-04-13 17:53:00,37.0,24.0,-100.00,West,270,14.0,-999.0,58,-99.99,,,-99.99,273.760010,,2013-04-13 21:53:00,
2013-04-13 18:00:00,37.0,24.0,-100.00,West,270,13.0,-999.0,61,-99.99,,,-99.99,208.800003,,2013-04-13 22:00:00,
2013-04-13 18:42:00,37.0,24.0,-100.00,West,270,13.0,-999.0,61,-99.99,,,-99.99,208.800003,,2013-04-13 22:42:00,
2013-04-13 18:53:00,37.0,24.0,-100.00,West,270,13.0,-999.0,61,-99.99,,,-99.99,208.800003,,2013-04-13 22:53:00,
2013-04-13 19:00:00,36.0,25.0,-100.00,West,270,11.0,-999.0,63,-99.99,,,-99.99,95.120003,,2013-04-13 23:00:00,
2013-04-13 19:43:00,36.0,25.0,-100.00,West,270,11.0,-999.0,63,-99.99,,,-99.99,95.120003,,2013-04-13 23:43:00,
2013-04-13 19:53:00,36.0,25.0,-100.00,West,270,11.0,-999.0,63,-99.99,,,-99.99,95.120003,,2013-04-13 23:53:00,
2013-04-13 21:00:00,35.0,26.0,-100.00,West,270,6.0,-999.0,69,-99.99,,,-99.99,1.160000,,2013-04-14 01:00:00,
2013-04-13 21:43:00,35.0,26.0,-100.00,West,270,6.0,-999.0,69,-99.99,,,-99.99,1.160000,,2013-04-14 01:43:00,
2013-04-13 21:53:00,35.0,26.0,-100.00,West,270,6.0,-999.0,69,-99.99,,,-99.99,1.160000,,2013-04-14 01:53:00,
2013-04-13 22:00:00,35.0,27.0,-100.00,West,270,5.0,-999.0,71,-99.99,,,-99.99,0.000000,,2013-04-14 02:00:00,
2013-04-13 22:43:00,35.0,27.0,-100.00,West,270,5.0,-999.0,71,-99.99,,,-99.99,0.000000,,2013-04-14 02:43:00,
2013-04-13 22:53:00,35.0,27.0,-100.00,West,270,5.0,-999.0,71,-99.99,,,-99.99,0.000000,,2013-04-14 02:53:00,
2013-04-13 23:00:00,35.0,27.0,-100.00,West,270,3.0,-999.0,74,-99.99,,,-99.99,0.000000,,2013-04-14 03:00:00,
2013-04-13 23:43:00,35.0,27.0,-100.00,West,270,3.0,-999.0,74,-99.99,,,-99.99,0.000000,,2013-04-14 03:43:00,
2013-04-13 23:53:00,35.0,27.0,-100.00,West,270,3.0,-999.0,74,-99.99,,,-99.99,0.000000,,2013-04-14 03:53:00,